createdAt,value
2023-03-10T00:01:27.632Z,9.66
2023-03-10T00:03:57.396Z,9.18
2023-03-10T00:06:27.494Z,7.74
2023-03-10T00:08:56.839Z,7.75
2023-03-10T00:11:25.247Z,8.20
2023-03-10T00:13:53.360Z,8.52
2023-03-10T00:16:27.538Z,7.47
2023-03-10T00:18:55.855Z,6.76
2023-03-10T00:21:26.870Z,7.23
2023-03-10T00:23:55.218Z,6.89
2023-03-10T00:26:25.114Z,6.97
2023-03-10T00:28:54.163Z,7.12
2023-03-10T00:31:24.781Z,7.69
2023-03-10T00:33:53.413Z,7.86
2023-03-10T00:36:26.885Z,7.66
2023-03-10T00:38:56.457Z,7.35
2023-03-10T00:41:26.959Z,7.52
2023-03-10T00:43:55.359Z,5.58
2023-03-10T00:46:24.418Z,5.17
2023-03-10T00:48:53.393Z,6.28
2023-03-10T00:51:22.562Z,6.43
2023-03-10T00:53:51.102Z,6.41
2023-03-10T00:56:24.214Z,6.14
2023-03-10T00:58:54.664Z,6.12
2023-03-10T01:01:29.283Z,6.45
2023-03-10T01:04:00.413Z,6.10
2023-03-10T01:06:28.960Z,6.02
2023-03-10T01:08:57.725Z,5.89
2023-03-10T01:11:29.451Z,5.89
2023-03-10T01:14:00.039Z,6.06
2023-03-10T01:16:29.585Z,5.81
2023-03-10T01:18:59.081Z,5.66
2023-03-10T01:21:31.807Z,5.62
2023-03-10T01:24:00.846Z,4.96
2023-03-10T01:26:29.451Z,5.30
2023-03-10T01:28:57.848Z,5.45
2023-03-10T01:31:26.488Z,5.34
2023-03-10T01:33:55.281Z,4.97
2023-03-10T01:36:26.486Z,5.10
2023-03-10T01:38:56.166Z,5.51
2023-03-10T01:41:24.937Z,5.37
2023-03-10T01:43:55.409Z,5.13
2023-03-10T01:46:39.716Z,5.33
2023-03-10T01:49:15.532Z,4.74
2023-03-10T01:51:48.206Z,5.77
2023-03-10T01:54:22.034Z,5.64
2023-03-10T01:56:51.456Z,5.49
2023-03-10T01:59:20.300Z,4.90
2023-03-10T02:01:51.278Z,4.97
2023-03-10T02:04:38.007Z,4.89
2023-03-10T02:07:06.967Z,4.97
2023-03-10T02:09:38.865Z,5.28
2023-03-10T02:12:08.468Z,3.93
2023-03-10T02:14:37.216Z,5.00
2023-03-10T02:17:07.397Z,4.62
2023-03-10T02:19:50.272Z,4.37
2023-03-10T02:22:18.888Z,4.06
2023-03-10T02:25:10.760Z,4.94
2023-03-10T02:27:40.468Z,5.21
2023-03-10T02:30:19.757Z,5.48
2023-03-10T02:32:52.924Z,5.18
2023-03-10T02:35:23.007Z,5.20
2023-03-10T02:37:52.108Z,5.34
2023-03-10T02:40:37.943Z,4.11
2023-03-10T02:43:16.203Z,4.81
2023-03-10T02:45:46.643Z,4.68
2023-03-10T02:48:21.047Z,3.99
2023-03-10T02:50:49.709Z,4.66
2023-03-10T02:53:25.058Z,4.67
2023-03-10T02:55:53.872Z,4.46
2023-03-10T02:58:23.866Z,4.67
2023-03-10T03:00:52.678Z,4.44
2023-03-10T03:03:22.226Z,4.53
2023-03-10T03:05:51.534Z,4.86
2023-03-10T03:08:20.495Z,3.94
2023-03-10T03:10:49.472Z,4.52
2023-03-10T03:13:18.565Z,4.33
2023-03-10T03:15:47.004Z,4.73
2023-03-10T03:18:15.267Z,4.40
2023-03-10T03:20:44.095Z,3.85
2023-03-10T03:23:12.958Z,4.08
2023-03-10T03:25:42.492Z,4.29
2023-03-10T03:28:12.910Z,4.33
2023-03-10T03:30:41.687Z,4.48
2023-03-10T03:33:10.036Z,4.58
2023-03-10T03:35:39.091Z,4.62
2023-03-10T03:38:07.677Z,4.79
2023-03-10T03:40:37.575Z,4.78
2023-03-10T03:43:06.718Z,4.97
2023-03-10T03:45:35.754Z,5.13
2023-03-10T03:48:04.062Z,5.16
2023-03-10T03:50:32.798Z,5.29
2023-03-10T03:53:02.513Z,5.43
2023-03-10T03:55:30.971Z,5.77
2023-03-10T03:57:59.927Z,4.78
2023-03-10T04:00:28.228Z,4.74
2023-03-10T04:02:56.846Z,4.51
2023-03-10T04:05:26.709Z,4.82
2023-03-10T04:07:54.985Z,5.35
2023-03-10T04:10:24.334Z,5.65
2023-03-10T04:12:52.681Z,4.98
2023-03-10T04:15:21.515Z,5.33
2023-03-10T04:17:50.521Z,5.24
2023-03-10T04:20:19.145Z,4.63
2023-03-10T04:22:47.661Z,4.06
2023-03-10T04:25:16.189Z,4.62
2023-03-10T04:27:44.477Z,4.17
2023-03-10T04:30:15.167Z,4.69
2023-03-10T04:32:44.291Z,4.90
2023-03-10T04:35:14.195Z,4.96
2023-03-10T04:37:42.472Z,4.84
2023-03-10T04:40:13.528Z,3.91
2023-03-10T04:42:41.978Z,4.06
2023-03-10T04:45:11.300Z,4.84
2023-03-10T04:47:40.384Z,4.37
2023-03-10T04:50:10.377Z,3.87
2023-03-10T04:52:38.898Z,4.07
2023-03-10T04:55:07.643Z,4.61
2023-03-10T04:57:35.801Z,4.81
2023-03-10T05:00:08.362Z,5.11
2023-03-10T05:02:37.872Z,4.52
2023-03-10T05:05:06.905Z,5.02
2023-03-10T05:07:35.639Z,5.09
2023-03-10T05:10:04.264Z,4.16
2023-03-10T05:12:33.035Z,4.71
2023-03-10T05:15:02.125Z,4.32
2023-03-10T05:17:30.794Z,4.39
2023-03-10T05:20:00.212Z,4.55
2023-03-10T05:22:28.421Z,4.24
2023-03-10T05:24:56.523Z,4.83
2023-03-10T05:27:25.032Z,4.75
2023-03-10T05:29:53.366Z,4.58
2023-03-10T05:32:21.596Z,4.25
2023-03-10T05:34:50.205Z,4.46
2023-03-10T05:37:19.462Z,4.12
2023-03-10T05:39:48.210Z,4.60
2023-03-10T05:42:17.281Z,4.62
2023-03-10T05:44:45.937Z,4.52
2023-03-10T05:47:14.778Z,5.08
2023-03-10T05:49:43.236Z,5.94
2023-03-10T05:52:11.353Z,5.88
2023-03-10T05:54:39.700Z,6.48
2023-03-10T05:57:08.281Z,7.20
2023-03-10T05:59:37.005Z,6.21
2023-03-10T06:02:05.204Z,8.94
2023-03-10T06:04:33.714Z,8.76
2023-03-10T06:07:02.190Z,10.04
2023-03-10T06:09:31.527Z,11.22
2023-03-10T06:12:00.244Z,10.81
2023-03-10T06:14:28.438Z,9.14
2023-03-10T06:16:56.761Z,9.59
2023-03-10T06:19:27.722Z,9.41
2023-03-10T06:21:55.915Z,9.46
2023-03-10T06:24:24.413Z,10.36
2023-03-10T06:26:52.492Z,11.07
2023-03-10T06:29:20.969Z,10.49
2023-03-10T06:31:49.713Z,9.20
2023-03-10T06:34:18.310Z,9.23
2023-03-10T06:36:46.405Z,9.44
2023-03-10T06:39:14.852Z,10.05
2023-03-10T06:41:42.974Z,11.45
2023-03-10T06:44:18.974Z,11.18
2023-03-10T06:46:47.756Z,11.42
2023-03-10T06:49:15.987Z,11.85
2023-03-10T06:51:44.102Z,12.06
2023-03-10T06:54:12.691Z,11.32
2023-03-10T06:56:40.883Z,10.93
2023-03-10T06:59:08.983Z,10.45
2023-03-10T07:01:37.514Z,11.43
2023-03-10T07:04:05.939Z,11.65
2023-03-10T07:06:34.342Z,12.83
2023-03-10T07:09:03.816Z,12.40
2023-03-10T07:11:32.576Z,13.22
2023-03-10T07:14:00.655Z,13.36
2023-03-10T07:16:29.237Z,13.08
2023-03-10T07:18:59.548Z,12.49
2023-03-10T07:21:27.903Z,13.57
2023-03-10T07:23:56.403Z,13.42
2023-03-10T07:26:24.809Z,13.76
2023-03-10T07:28:52.974Z,13.97
2023-03-10T07:31:21.697Z,13.97
2023-03-10T07:33:50.217Z,14.25
2023-03-10T07:36:19.704Z,15.02
2023-03-10T07:38:48.798Z,15.34
2023-03-10T07:41:19.625Z,15.62
2023-03-10T07:43:52.266Z,14.95
2023-03-10T07:46:21.215Z,15.23
2023-03-10T07:48:50.085Z,15.33
2023-03-10T07:51:18.366Z,15.46
2023-03-10T07:53:46.586Z,15.31
2023-03-10T07:56:15.361Z,15.53
2023-03-10T07:58:43.516Z,15.46
2023-03-10T08:01:17.311Z,14.95
2023-03-10T08:03:46.829Z,15.41
2023-03-10T08:06:23.482Z,15.27
2023-03-10T08:08:52.884Z,15.65
2023-03-10T08:11:22.312Z,16.28
2023-03-10T08:13:50.536Z,16.40
2023-03-10T08:16:20.824Z,15.83
2023-03-10T08:18:51.693Z,15.16
2023-03-10T08:21:20.618Z,15.45
2023-03-10T08:23:48.794Z,14.88
2023-03-10T08:26:18.487Z,15.00
2023-03-10T08:28:47.663Z,14.38
2023-03-10T08:31:19.062Z,14.35
2023-03-10T08:33:48.519Z,14.93
2023-03-10T08:36:23.003Z,15.10
2023-03-10T08:38:54.148Z,15.09
2023-03-10T08:41:26.642Z,15.22
2023-03-10T08:43:58.182Z,15.12
2023-03-10T08:46:28.392Z,15.04
2023-03-10T08:48:57.020Z,14.97
2023-03-10T08:51:27.230Z,15.66
2023-03-10T08:53:57.675Z,16.41
2023-03-10T08:56:25.978Z,16.97
2023-03-10T08:59:00.133Z,17.08
2023-03-10T09:01:31.303Z,16.71
2023-03-10T09:04:00.562Z,17.37
2023-03-10T09:06:29.434Z,17.83
2023-03-10T09:08:57.931Z,17.99
2023-03-10T09:11:28.805Z,18.13
2023-03-10T09:13:57.897Z,17.83
2023-03-10T09:16:26.446Z,18.10
2023-03-10T09:18:56.156Z,18.26
2023-03-10T09:21:25.506Z,18.66
2023-03-10T09:23:53.669Z,18.41
2023-03-10T09:26:24.225Z,18.75
2023-03-10T09:28:54.640Z,19.21
2023-03-10T09:31:26.657Z,19.27
2023-03-10T09:33:55.209Z,19.58
2023-03-10T09:36:23.540Z,19.25
2023-03-10T09:38:53.289Z,19.96
2023-03-10T09:41:45.344Z,19.34
2023-03-10T09:44:25.249Z,19.84
2023-03-10T09:47:33.875Z,20.23
2023-03-10T09:50:34.383Z,19.84
2023-03-10T09:53:15.848Z,20.23
2023-03-10T09:55:48.627Z,19.75
2023-03-10T09:58:34.232Z,19.69
2023-03-10T10:01:04.249Z,20.55
2023-03-10T10:03:52.720Z,21.62
2023-03-10T10:06:28.557Z,20.98
2023-03-10T10:09:04.965Z,20.99
2023-03-10T10:11:35.345Z,20.93
2023-03-10T10:16:59.392Z,20.72
2023-03-10T10:19:28.832Z,21.12
2023-03-10T10:22:17.265Z,20.04
2023-03-10T10:25:06.423Z,19.88
2023-03-10T10:27:41.012Z,21.21
2023-03-10T10:30:28.630Z,21.27
2023-03-10T10:33:08.090Z,21.32
2023-03-10T10:35:39.566Z,21.52
2023-03-10T10:38:10.885Z,20.60
2023-03-10T10:40:57.677Z,20.39
2023-03-10T10:43:25.983Z,20.11
2023-03-10T10:46:04.727Z,20.43
2023-03-10T10:48:43.478Z,19.87
2023-03-10T10:51:27.438Z,19.42
2023-03-10T10:54:02.279Z,19.06
2023-03-10T10:56:31.407Z,19.18
2023-03-10T10:59:08.621Z,20.61
2023-03-10T11:02:01.079Z,21.17
2023-03-10T11:04:41.863Z,21.59
2023-03-10T11:07:20.447Z,22.12
2023-03-10T11:09:48.790Z,23.03
2023-03-10T11:12:35.632Z,22.77
2023-03-10T11:15:09.901Z,22.35
2023-03-10T11:17:50.841Z,22.44
2023-03-10T11:20:44.519Z,21.73
2023-03-10T11:23:23.068Z,21.37
2023-03-10T11:26:08.366Z,21.16
2023-03-10T11:28:54.005Z,21.83
2023-03-10T11:31:50.100Z,21.30
2023-03-10T11:34:25.945Z,22.38
2023-03-10T11:37:03.583Z,22.98
2023-03-10T11:40:13.874Z,23.48
2023-03-10T11:43:15.408Z,22.09
2023-03-10T11:45:54.803Z,22.06
2023-03-10T11:48:44.979Z,20.05
2023-03-10T11:51:42.163Z,20.76
2023-03-10T11:54:29.959Z,20.89
2023-03-10T11:57:00.371Z,20.18
2023-03-10T11:59:33.830Z,19.60
2023-03-10T12:02:22.409Z,18.97
2023-03-10T12:05:04.434Z,19.20
2023-03-10T12:07:38.048Z,19.79
2023-03-10T12:10:12.636Z,19.99
2023-03-10T12:12:49.851Z,19.62
2023-03-10T12:15:31.622Z,19.69
2023-03-10T12:18:00.002Z,19.69
2023-03-10T12:20:30.099Z,19.62
2023-03-10T12:23:28.411Z,19.48
2023-03-10T12:25:58.414Z,20.01
2023-03-10T12:28:28.072Z,19.08
2023-03-10T12:31:00.546Z,19.38
2023-03-10T12:33:34.709Z,19.86
2023-03-10T12:36:20.465Z,19.94
2023-03-10T12:38:55.487Z,20.33
2023-03-10T12:41:27.114Z,19.71
2023-03-10T12:44:03.080Z,18.83
2023-03-10T12:46:45.474Z,19.15
2023-03-10T12:49:31.976Z,19.47
2023-03-10T12:52:39.278Z,19.56
2023-03-10T12:55:25.188Z,19.56
2023-03-10T12:57:56.389Z,19.67
2023-03-10T13:00:33.469Z,19.38
2023-03-10T13:03:10.733Z,19.62
2023-03-10T13:05:56.725Z,19.73
2023-03-10T13:08:42.413Z,19.67
2023-03-10T13:11:32.118Z,19.47
2023-03-10T13:14:06.294Z,19.96
2023-03-10T13:16:36.801Z,19.85
2023-03-10T13:19:05.700Z,19.80
2023-03-10T13:21:40.373Z,18.77
2023-03-10T13:24:30.369Z,18.19
2023-03-10T13:27:05.273Z,18.56
2023-03-10T13:29:33.949Z,18.25
2023-03-10T13:32:02.258Z,18.56
2023-03-10T13:34:32.377Z,18.66
2023-03-10T13:37:10.194Z,18.88
2023-03-10T13:39:42.341Z,18.73
2023-03-10T13:42:43.325Z,19.61
2023-03-10T13:45:25.422Z,19.37
2023-03-10T13:47:54.722Z,18.65
2023-03-10T13:50:23.278Z,18.80
2023-03-10T13:52:58.233Z,18.62
2023-03-10T13:55:29.974Z,18.56
2023-03-10T13:57:58.339Z,17.56
2023-03-10T14:00:27.526Z,17.78
2023-03-10T14:02:59.510Z,17.40
2023-03-10T14:05:41.566Z,17.70
2023-03-10T14:08:23.003Z,17.51
2023-03-10T14:10:51.660Z,17.11
2023-03-10T14:13:45.414Z,17.27
2023-03-10T14:16:14.040Z,16.75
2023-03-10T14:18:43.842Z,17.03
2023-03-10T14:21:29.524Z,16.89
2023-03-10T14:24:13.995Z,16.92
2023-03-10T14:26:43.594Z,17.31
2023-03-10T14:29:16.024Z,17.73
2023-03-10T14:31:51.599Z,16.99
2023-03-10T14:34:20.546Z,17.34
2023-03-10T14:36:49.621Z,17.72
2023-03-10T14:39:18.274Z,17.65
2023-03-10T14:41:48.054Z,17.70
2023-03-10T14:44:18.546Z,17.19
2023-03-10T14:46:48.296Z,17.16
2023-03-10T14:49:16.845Z,16.89
2023-03-10T14:51:45.033Z,16.68
2023-03-10T14:54:21.649Z,16.57
2023-03-10T14:56:53.596Z,16.70
2023-03-10T14:59:22.135Z,16.22
2023-03-10T15:01:50.459Z,16.52
2023-03-10T15:04:20.607Z,16.45
2023-03-10T15:06:49.132Z,16.25
2023-03-10T15:09:18.723Z,16.60
2023-03-10T15:11:48.918Z,16.26
2023-03-10T15:14:20.517Z,15.91
2023-03-10T15:16:49.007Z,16.06
2023-03-10T15:19:28.561Z,15.87
2023-03-10T15:21:57.091Z,15.66
2023-03-10T15:24:25.292Z,15.59
2023-03-10T15:26:53.547Z,15.50
2023-03-10T15:29:23.753Z,15.34
2023-03-10T15:31:52.049Z,15.29
2023-03-10T15:34:21.526Z,15.25
2023-03-10T15:36:50.230Z,15.08
2023-03-10T15:39:30.637Z,14.92
2023-03-10T15:42:01.555Z,14.82
2023-03-10T15:44:29.815Z,14.90
2023-03-10T15:46:58.073Z,14.84
2023-03-10T15:49:27.068Z,14.44
2023-03-10T15:51:55.360Z,14.83
2023-03-10T15:54:23.579Z,14.93
2023-03-10T15:56:52.194Z,14.75
2023-03-10T15:59:20.695Z,14.70
2023-03-10T16:01:48.996Z,14.27
2023-03-10T16:04:18.872Z,14.18
2023-03-10T16:06:47.157Z,14.26
2023-03-10T16:09:15.407Z,13.99
2023-03-10T16:11:44.435Z,13.87
2023-03-10T16:14:12.815Z,13.74
2023-03-10T16:16:43.051Z,13.93
2023-03-10T16:19:11.729Z,13.76
2023-03-10T16:21:39.911Z,13.87
2023-03-10T16:24:08.174Z,13.70
2023-03-10T16:26:36.834Z,13.32
2023-03-10T16:29:08.204Z,13.39
2023-03-10T16:31:44.708Z,13.16
2023-03-10T16:34:12.997Z,13.33
2023-03-10T16:36:41.806Z,13.56
2023-03-10T16:39:11.029Z,13.07
2023-03-10T16:41:39.577Z,12.74
2023-03-10T16:44:12.675Z,13.14
2023-03-10T16:46:41.299Z,13.07
2023-03-10T16:49:16.992Z,13.56
2023-03-10T16:52:12.892Z,13.52
2023-03-10T16:54:48.784Z,13.54
2023-03-10T16:57:18.296Z,12.94
2023-03-10T16:59:47.829Z,13.05
2023-03-10T17:02:22.604Z,13.30
2023-03-10T17:04:53.813Z,13.12
2023-03-10T17:07:22.800Z,12.81
2023-03-10T17:09:51.952Z,12.70
2023-03-10T17:12:20.899Z,13.11
2023-03-10T17:14:52.280Z,13.06
2023-03-10T17:17:23.170Z,13.12
2023-03-10T17:19:52.974Z,13.33
2023-03-10T17:22:21.174Z,13.60
2023-03-10T17:24:54.046Z,13.41
2023-03-10T17:27:22.538Z,13.30
2023-03-10T17:29:51.573Z,13.53
2023-03-10T17:32:20.039Z,13.43
2023-03-10T17:34:52.315Z,13.37
2023-03-10T17:37:21.726Z,13.54
2023-03-10T17:39:51.023Z,13.65
2023-03-10T17:42:19.507Z,13.13
2023-03-10T17:44:48.728Z,13.18
2023-03-10T17:47:17.754Z,13.40
2023-03-10T17:49:46.647Z,13.51
2023-03-10T17:52:15.208Z,13.22
2023-03-10T17:54:43.517Z,13.02
2023-03-10T17:57:11.608Z,13.28
2023-03-10T17:59:41.891Z,12.94
2023-03-10T18:02:12.415Z,13.51
2023-03-10T18:04:45.432Z,13.18
2023-03-10T18:07:13.946Z,12.95
2023-03-10T18:09:42.430Z,13.06
2023-03-10T18:12:10.657Z,12.82
2023-03-10T18:14:38.798Z,13.36
2023-03-10T18:17:07.328Z,13.46
2023-03-10T18:19:35.729Z,13.24
2023-03-10T18:22:05.878Z,13.37
2023-03-10T18:24:34.402Z,13.28
2023-03-10T18:27:02.820Z,13.33
2023-03-10T18:29:30.980Z,13.30
2023-03-10T18:31:59.460Z,13.72
2023-03-10T18:34:27.848Z,12.90
2023-03-10T18:36:56.179Z,13.39
2023-03-10T18:39:24.899Z,14.09
2023-03-10T18:41:55.443Z,13.54
2023-03-10T18:44:23.628Z,13.30
2023-03-10T18:46:52.311Z,13.09
2023-03-10T18:49:20.607Z,12.73
2023-03-10T18:51:48.739Z,12.82
2023-03-10T18:54:17.246Z,12.98
2023-03-10T18:56:46.809Z,12.88
2023-03-10T18:59:15.511Z,12.82
2023-03-10T19:01:44.117Z,12.83
2023-03-10T19:04:12.253Z,12.12
2023-03-10T19:06:41.946Z,12.46
2023-03-10T19:09:11.422Z,12.99
2023-03-10T19:11:40.135Z,12.96
2023-03-10T19:14:08.329Z,12.75
2023-03-10T19:16:37.803Z,13.02
2023-03-10T19:19:06.265Z,12.62
2023-03-10T19:21:39.533Z,12.29
2023-03-10T19:24:11.471Z,11.85
2023-03-10T19:26:48.552Z,12.11
2023-03-10T19:29:18.825Z,12.22
2023-03-10T19:31:49.996Z,11.81
2023-03-10T19:34:22.526Z,11.95
2023-03-10T19:36:51.353Z,13.21
2023-03-10T19:39:20.251Z,12.42
2023-03-10T19:41:48.497Z,12.36
2023-03-10T19:44:16.946Z,11.44
2023-03-10T19:46:45.468Z,11.60
2023-03-10T19:49:13.666Z,12.68
2023-03-10T19:51:41.799Z,13.43
2023-03-10T19:54:10.517Z,12.39
2023-03-10T19:56:40.202Z,12.09
2023-03-10T19:59:10.548Z,12.96
2023-03-10T20:01:41.414Z,12.24
2023-03-10T20:04:11.634Z,12.01
2023-03-10T20:06:40.496Z,12.77
2023-03-10T20:09:10.876Z,12.30
2023-03-10T20:11:40.233Z,12.60
2023-03-10T20:14:10.837Z,12.21
2023-03-10T20:16:46.315Z,12.14
2023-03-10T20:19:14.410Z,12.40
2023-03-10T20:21:43.218Z,12.03
2023-03-10T20:24:11.381Z,12.16
2023-03-10T20:26:39.471Z,12.20
2023-03-10T20:29:07.987Z,12.37
2023-03-10T20:31:36.250Z,12.21
2023-03-10T20:34:06.498Z,11.94
2023-03-10T20:36:35.056Z,11.15
2023-03-10T20:39:03.291Z,11.54
2023-03-10T20:41:31.383Z,11.76
2023-03-10T20:44:00.784Z,11.89
2023-03-10T20:46:29.307Z,11.11
2023-03-10T20:48:57.428Z,11.43
2023-03-10T20:51:25.986Z,11.25
2023-03-10T20:53:54.125Z,11.67
2023-03-10T20:56:22.255Z,11.58
2023-03-10T20:58:51.500Z,11.49
2023-03-10T21:01:21.415Z,11.95
2023-03-10T21:03:54.732Z,11.89
2023-03-10T21:06:24.965Z,11.40
2023-03-10T21:08:53.074Z,11.47
2023-03-10T21:11:21.910Z,11.51
2023-03-10T21:13:51.181Z,11.39
2023-03-10T21:16:20.847Z,11.49
2023-03-10T21:18:49.196Z,11.43
2023-03-10T21:21:17.774Z,11.56
2023-03-10T21:23:45.830Z,11.51
2023-03-10T21:26:19.589Z,10.88
2023-03-10T21:28:48.112Z,11.18
2023-03-10T21:31:16.941Z,11.08
2023-03-10T21:33:45.276Z,11.13
2023-03-10T21:36:22.679Z,11.17
2023-03-10T21:38:52.205Z,11.34
2023-03-10T21:41:24.397Z,11.44
2023-03-10T21:43:54.468Z,11.24
2023-03-10T21:46:22.572Z,11.36
2023-03-10T21:48:52.521Z,11.43
2023-03-10T21:51:23.439Z,11.43
2023-03-10T21:53:53.839Z,11.51
2023-03-10T21:56:23.713Z,11.77
2023-03-10T21:58:51.825Z,11.06
2023-03-10T22:01:19.977Z,11.74
2023-03-10T22:03:49.385Z,11.48
2023-03-10T22:06:17.513Z,11.75
2023-03-10T22:08:45.631Z,11.45
2023-03-10T22:11:14.776Z,11.91
2023-03-10T22:13:43.101Z,11.79
2023-03-10T22:16:14.968Z,11.35
2023-03-10T22:18:44.180Z,11.37
2023-03-10T22:21:12.304Z,11.39
2023-03-10T22:23:40.638Z,10.98
2023-03-10T22:26:09.151Z,11.23
2023-03-10T22:28:37.547Z,11.22
2023-03-10T22:31:09.703Z,11.47
2023-03-10T22:33:38.199Z,11.43
2023-03-10T22:36:09.017Z,11.55
2023-03-10T22:38:37.617Z,11.08
2023-03-10T22:41:10.615Z,11.39
2023-03-10T22:43:39.247Z,11.36
2023-03-10T22:46:12.326Z,11.81
2023-03-10T22:48:41.505Z,11.56
2023-03-10T22:51:13.084Z,11.34
2023-03-10T22:53:41.606Z,11.60
2023-03-10T22:56:09.774Z,11.46
2023-03-10T22:58:38.063Z,10.79
2023-03-10T23:01:06.894Z,10.97
2023-03-10T23:03:35.727Z,11.04
2023-03-10T23:06:05.835Z,11.10
2023-03-10T23:08:37.654Z,11.16
2023-03-10T23:11:13.096Z,10.87
2023-03-10T23:13:41.928Z,10.79
2023-03-10T23:16:10.222Z,10.48
2023-03-10T23:18:38.510Z,10.53
2023-03-10T23:21:07.332Z,10.51
2023-03-10T23:23:35.581Z,10.58
2023-03-10T23:26:03.880Z,10.63
2023-03-10T23:28:32.425Z,10.52
2023-03-10T23:31:00.725Z,10.51
2023-03-10T23:33:28.820Z,10.35
2023-03-10T23:35:57.323Z,10.34
2023-03-10T23:38:26.621Z,10.22
2023-03-10T23:40:55.723Z,10.17
2023-03-10T23:43:24.583Z,9.78
2023-03-10T23:45:53.300Z,9.83
2023-03-10T23:48:21.922Z,9.94
2023-03-10T23:50:50.715Z,10.05
2023-03-10T23:53:21.045Z,9.84
2023-03-10T23:55:49.819Z,9.89
2023-03-10T23:58:19.894Z,10.02
